Decoded Metar for PAPB (POINT BARROW in AK, USA) (IATA:N/A) | Meteo·Mobile Aviation Weather
aviador You're here:

PAPB Decoded Metar

POINT BARROW in AK, USA
Report Time2018-09-21 17:53:00
UTC Time2018-09-21 18:14:36
Flight Rules mvfr MVFR
Wind230° at 17 Gusting to 30 kt
W.Decomp.*RWY 29: 5.5 kt HW 16.1 kt LCW
W.Rank230° ranks 17
Current wind is above 230° avg. (12.9)
Visibility9999 m
Phenomena:N/A
Clouds:Few 007 Hf
Overcast 012 Hf
Expected CloudBase > 400 ft AGL from Temp-Dew spread
Ceiling1,200 ft
Temp10°C (ISA -5)
Dew Point09°C (94% RH)
AAT3.7°C
QNH1003 hPa
Density Alt39 ft
Elevation115 ft
Report Wrong Elevation
Raw Report
PAPB 211753Z AUTO 23017G30KT 7SM FEW007 OVC012 10/09 A2961 RMK AO2
PK WND 23030/1744 SLP015 T01000094 10100 20094 55001 TSNO
$=

Extra information for PAPB:More info

Metar Taf Metar & Taf Last 4 Metars F.Rules Stats Wind Profile Meteogram Temp Stats Airport Information Weather charts Add Link Nearby VenuesMetar ALERT Operation Metar Decoded Social comments

AIRNAV info for PAPB